Time;durP1;ratioP1;P1;durP2;ratioP2;P2;SDS_P1;SDS_P2;PMS_P1;PMS_P2;Temp;Humidity;BMP_temperature;BMP_pressure;BME280_temperature;BME280_humidity;BME280_pressure;Samples;Min_cycle;Max_cycle;Signal;HPM_P1;HPM_P2
2023/10/09 00:03:06;;;;;;;29.80;16.42;;;;;;;;;;5003723;28;25089;-71
2023/10/09 00:05:45;;;;;;;28.85;17.63;;;;;;;;;;4988175;28;25071;-73
2023/10/09 00:08:30;;;;;;;34.45;17.10;;;;;;;;;;4993960;28;25054;-71
2023/10/09 00:10:57;;;;;;;31.92;17.05;;;;;;;;;;5000093;28;25052;-74
2023/10/09 00:13:30;;;;;;;29.40;16.90;;;;;;;;;;5000191;28;25109;-73
2023/10/09 00:16:01;;;;;;;34.75;16.50;;;;;;;;;;4979774;28;25102;-73
2023/10/09 00:18:33;;;;;;;29.90;17.27;;;;;;;;;;4989120;28;25065;-73
2023/10/09 00:21:12;;;;;;;32.72;17.52;;;;;;;;;;4993371;28;25076;-71
2023/10/09 00:23:41;;;;;;;25.25;14.48;;;;;;;;;;4996130;28;25066;-73
2023/10/09 00:26:16;;;;;;;30.20;15.75;;;;;;;;;;5005414;28;25057;-71
2023/10/09 00:28:47;;;;;;;28.60;15.85;;;;;;;;;;4996872;28;25056;-74
2023/10/09 00:31:25;;;;;;;23.60;15.25;;;;;;;;;;4981613;28;25087;-71
2023/10/09 00:33:52;;;;;;;24.45;15.30;;;;;;;;;;4992529;28;25057;-72
2023/10/09 00:36:28;;;;;;;22.30;13.40;;;;;;;;;;4996680;28;25155;-74
2023/10/09 00:38:54;;;;;;;21.50;12.82;;;;;;;;;;4993860;28;25079;-71
2023/10/09 00:41:22;;;;;;;20.48;13.32;;;;;;;;;;4997692;28;25071;-72
2023/10/09 00:43:49;;;;;;;23.17;12.98;;;;;;;;;;4995988;28;25058;-73
2023/10/09 00:48:47;;;;;;;20.50;12.10;;;;;;;;;;4990169;28;25062;-74
2023/10/09 00:51:18;;;;;;;20.15;11.32;;;;;;;;;;4990346;28;25094;-73
2023/10/09 00:53:51;;;;;;;21.20;12.50;;;;;;;;;;4988439;28;25092;-72
2023/10/09 00:57:06;;;;;;;19.00;10.60;;;;;;;;;;4990614;28;25066;-77
2023/10/09 00:59:14;;;;;;;15.25;9.70;;;;;;;;;;4963449;28;25077;-71
2023/10/09 01:01:45;;;;;;;19.55;11.73;;;;;;;;;;4990645;28;25059;-73
2023/10/09 01:04:15;;;;;;;26.00;11.18;;;;;;;;;;4999253;28;25082;-73
2023/10/09 01:06:44;;;;;;;19.33;9.73;;;;;;;;;;5001887;28;25048;-73
2023/10/09 01:09:12;;;;;;;18.10;11.38;;;;;;;;;;4994991;28;25099;-72
2023/10/09 01:11:48;;;;;;;18.45;10.57;;;;;;;;;;4991611;28;25155;-72
2023/10/09 01:14:14;;;;;;;17.23;10.95;;;;;;;;;;4999385;28;25080;-73
2023/10/09 01:16:44;;;;;;;16.63;10.10;;;;;;;;;;4960601;28;25048;-73
2023/10/09 01:19:19;;;;;;;15.25;8.82;;;;;;;;;;4995540;28;25179;-70
2023/10/09 01:21:45;;;;;;;18.52;10.15;;;;;;;;;;4984245;28;25049;-73
2023/10/09 01:24:11;;;;;;;15.90;10.07;;;;;;;;;;4989552;28;25071;-73
2023/10/09 01:26:44;;;;;;;21.52;10.50;;;;;;;;;;4993651;28;25155;-74
2023/10/09 01:29:14;;;;;;;18.23;9.63;;;;;;;;;;4990444;28;25072;-72
2023/10/09 01:31:46;;;;;;;16.27;9.48;;;;;;;;;;4993656;28;25067;-70
2023/10/09 01:34:12;;;;;;;17.45;10.70;;;;;;;;;;4994306;28;25065;-72
2023/10/09 01:36:39;;;;;;;18.42;11.02;;;;;;;;;;4996438;28;25069;-73
2023/10/09 01:39:10;;;;;;;19.88;9.50;;;;;;;;;;4991794;28;25077;-70
2023/10/09 01:41:46;;;;;;;18.58;9.48;;;;;;;;;;4999017;28;25058;-73
2023/10/09 01:44:12;;;;;;;20.35;10.00;;;;;;;;;;4997969;28;24925;-73
2023/10/09 01:46:38;;;;;;;24.52;9.23;;;;;;;;;;4995638;28;25067;-73
2023/10/09 01:49:08;;;;;;;18.45;9.98;;;;;;;;;;4995683;28;25064;-71
2023/10/09 01:51:38;;;;;;;16.10;8.48;;;;;;;;;;4999796;28;25064;-73
2023/10/09 01:54:04;;;;;;;20.77;10.18;;;;;;;;;;4974743;28;25061;-70
2023/10/09 01:56:31;;;;;;;15.23;8.88;;;;;;;;;;4997913;28;25080;-72
2023/10/09 01:59:02;;;;;;;15.63;9.30;;;;;;;;;;4991943;28;25077;-73
2023/10/09 02:01:40;;;;;;;22.40;9.40;;;;;;;;;;5003860;28;25109;-72
2023/10/09 02:13:17;;;;;;;15.27;9.10;;;;;;;;;;4999810;28;25071;-75
2023/10/09 02:18:21;;;;;;;18.33;8.40;;;;;;;;;;4998596;28;25078;-76
2023/10/09 02:23:30;;;;;;;21.25;8.75;;;;;;;;;;4989462;28;25156;-71
2023/10/09 02:26:05;;;;;;;14.60;8.57;;;;;;;;;;4997868;28;25076;-71
2023/10/09 02:28:32;;;;;;;15.98;8.65;;;;;;;;;;4995587;28;25047;-74
2023/10/09 02:31:01;;;;;;;19.10;9.38;;;;;;;;;;5005275;28;25103;-72
2023/10/09 02:33:27;;;;;;;18.15;8.18;;;;;;;;;;4999151;28;25078;-73
2023/10/09 02:36:13;;;;;;;16.35;7.20;;;;;;;;;;5002507;28;25081;-73
2023/10/09 02:38:43;;;;;;;14.85;8.15;;;;;;;;;;5001846;28;25070;-72
2023/10/09 02:43:44;;;;;;;20.50;8.40;;;;;;;;;;4999381;28;25063;-73
2023/10/09 02:46:17;;;;;;;;;;;;;;;;;;5003946;28;25069;-74
2023/10/09 02:48:45;;;;;;;15.45;7.95;;;;;;;;;;4999151;28;25057;-71
2023/10/09 02:51:21;;;;;;;14.63;7.40;;;;;;;;;;5005770;28;25081;-70
2023/10/09 02:53:49;;;;;;;15.93;8.90;;;;;;;;;;4999938;28;25073;-73
2023/10/09 02:56:17;;;;;;;14.30;7.50;;;;;;;;;;4986048;28;25026;-72
2023/10/09 02:58:43;;;;;;;13.02;7.68;;;;;;;;;;5000258;28;25058;-72
2023/10/09 03:01:13;;;;;;;18.15;7.72;;;;;;;;;;4997483;28;25050;-70
2023/10/09 03:03:48;;;;;;;17.38;8.55;;;;;;;;;;5003280;28;25044;-71
2023/10/09 03:06:19;;;;;;;17.77;9.15;;;;;;;;;;4981509;28;25045;-72
2023/10/09 03:08:47;;;;;;;18.98;8.38;;;;;;;;;;4999369;28;25113;-70
2023/10/09 03:11:14;;;;;;;19.08;8.30;;;;;;;;;;5001582;28;25081;-73
2023/10/09 03:13:44;;;;;;;17.80;9.00;;;;;;;;;;5003346;28;25069;-72
2023/10/09 03:16:18;;;;;;;20.23;8.25;;;;;;;;;;4988923;28;25059;-71
2023/10/09 03:18:46;;;;;;;19.70;9.27;;;;;;;;;;5002166;28;25056;-73
2023/10/09 03:21:14;;;;;;;16.10;9.68;;;;;;;;;;5001923;28;25148;-72
2023/10/09 03:23:40;;;;;;;15.88;9.55;;;;;;;;;;5001611;28;25104;-73
2023/10/09 03:26:07;;;;;;;14.10;8.60;;;;;;;;;;5000454;28;25092;-70
2023/10/09 03:28:33;;;;;;;20.58;8.73;;;;;;;;;;5000971;28;25096;-73
2023/10/09 03:31:02;;;;;;;20.13;9.05;;;;;;;;;;4996964;28;25078;-72
2023/10/09 03:33:32;;;;;;;14.88;8.95;;;;;;;;;;4985254;28;25073;-72
2023/10/09 03:35:59;;;;;;;16.95;9.60;;;;;;;;;;4997082;28;25067;-72
2023/10/09 03:38:29;;;;;;;20.05;9.80;;;;;;;;;;4995476;28;25109;-72
2023/10/09 03:40:55;;;;;;;17.80;9.25;;;;;;;;;;5000870;28;25059;-73
2023/10/09 03:43:21;;;;;;;19.38;9.93;;;;;;;;;;5003193;28;25147;-73
2023/10/09 03:45:54;;;;;;;21.65;10.20;;;;;;;;;;4998225;28;25086;-70
2023/10/09 03:48:31;;;;;;;16.85;9.73;;;;;;;;;;5001762;28;25094;-71
2023/10/09 03:51:15;;;;;;;19.92;9.63;;;;;;;;;;4996684;28;25068;-73
2023/10/09 03:53:42;;;;;;;25.00;10.10;;;;;;;;;;5003505;28;25051;-72
2023/10/09 03:56:11;;;;;;;21.30;10.30;;;;;;;;;;4985537;28;25080;-73
2023/10/09 03:58:44;;;;;;;20.52;9.93;;;;;;;;;;4980491;28;25141;-72
2023/10/09 04:01:17;;;;;;;18.85;10.23;;;;;;;;;;4997000;28;25066;-70
2023/10/09 04:03:44;;;;;;;16.60;10.43;;;;;;;;;;4996152;28;25103;-71
2023/10/09 04:06:11;;;;;;;24.17;10.13;;;;;;;;;;4978865;28;25051;-72
2023/10/09 04:08:39;;;;;;;21.30;10.77;;;;;;;;;;5001127;28;25057;-73
2023/10/09 04:11:15;;;;;;;24.42;10.00;;;;;;;;;;4984612;28;25062;-70
2023/10/09 04:13:45;;;;;;;23.00;11.23;;;;;;;;;;5001985;28;25097;-73
2023/10/09 04:16:28;;;;;;;24.88;11.90;;;;;;;;;;5002509;28;25081;-72
2023/10/09 04:18:56;;;;;;;;;;;;;;;;;;4984271;28;25098;-74
2023/10/09 04:21:34;;;;;;;19.60;11.38;;;;;;;;;;4995564;28;25058;-72
2023/10/09 04:26:46;;;;;;;23.20;12.07;;;;;;;;;;4994521;28;25045;-73
2023/10/09 04:30:01;;;;;;;24.70;11.88;;;;;;;;;;4996395;28;25014;-71
2023/10/09 04:32:00;;;;;;;21.27;11.07;;;;;;;;;;4988216;28;25076;-75
2023/10/09 04:34:37;;;;;;;22.52;11.77;;;;;;;;;;4993613;28;25079;-73
2023/10/09 04:39:46;;;;;;;22.73;11.18;;;;;;;;;;4995640;28;25088;-72
2023/10/09 04:47:38;;;;;;;28.90;12.68;;;;;;;;;;4995900;28;25074;-72
2023/10/09 04:52:52;;;;;;;23.25;12.32;;;;;;;;;;4997413;28;25080;-71
2023/10/09 04:55:19;;;;;;;27.65;12.75;;;;;;;;;;4977026;28;25058;-73
2023/10/09 04:57:46;;;;;;;21.60;10.57;;;;;;;;;;4976449;28;25072;-72
2023/10/09 05:02:54;;;;;;;23.92;11.20;;;;;;;;;;4992430;28;25071;-74
2023/10/09 05:08:21;;;;;;;20.42;11.38;;;;;;;;;;4996701;28;25071;-72
2023/10/09 05:11:05;;;;;;;33.60;12.85;;;;;;;;;;4978764;28;25078;-74
2023/10/09 05:16:28;;;;;;;28.05;11.52;;;;;;;;;;4996716;28;25167;-71
2023/10/09 05:19:08;;;;;;;28.17;12.27;;;;;;;;;;4997996;28;25090;-73
2023/10/09 05:32:03;;;;;;;25.58;12.52;;;;;;;;;;4998566;28;25058;-75
2023/10/09 05:37:17;;;;;;;23.00;12.15;;;;;;;;;;4996565;28;25073;-71
2023/10/09 05:42:42;;;;;;;21.50;12.43;;;;;;;;;;5008275;28;25046;-73
2023/10/09 05:47:57;;;;;;;23.15;12.60;;;;;;;;;;4997916;28;25065;-71
2023/10/09 06:04:12;;;;;;;21.73;11.05;;;;;;;;;;4998852;28;25080;-75
2023/10/09 06:07:49;;;;;;;19.60;10.65;;;;;;;;;;5002687;28;25061;-71
2023/10/09 06:14:58;;;;;;;23.70;11.43;;;;;;;;;;5008497;28;25052;-72
2023/10/09 06:17:24;;;;;;;21.75;10.55;;;;;;;;;;5004809;28;25067;-71
2023/10/09 06:19:58;;;;;;;20.45;10.98;;;;;;;;;;5006482;28;25068;-73
2023/10/09 06:30:15;;;;;;;18.77;11.00;;;;;;;;;;4998684;28;25049;-73
2023/10/09 06:35:32;;;;;;;18.35;9.88;;;;;;;;;;5011705;28;25098;-72
2023/10/09 06:45:54;;;;;;;22.80;10.00;;;;;;;;;;5005929;28;25087;-71
2023/10/09 06:59:04;;;;;;;20.83;9.40;;;;;;;;;;4990462;28;25128;-74
2023/10/09 07:01:42;;;;;;;17.38;9.27;;;;;;;;;;4997611;28;25050;-72
2023/10/09 07:04:45;;;;;;;18.58;9.32;;;;;;;;;;4990030;28;25142;-74
2023/10/09 07:07:20;;;;;;;22.27;9.10;;;;;;;;;;4994964;28;25056;-70
2023/10/09 07:12:42;;;;;;;23.65;10.07;;;;;;;;;;4993851;28;25069;-72
2023/10/09 07:20:13;;;;;;;19.48;9.00;;;;;;;;;;4997039;28;25096;-74
2023/10/09 07:22:39;;;;;;;14.07;8.70;;;;;;;;;;4997173;28;25098;-74
2023/10/09 07:25:27;;;;;;;22.42;8.82;;;;;;;;;;4996955;28;25077;-69
2023/10/09 07:27:56;;;;;;;19.95;8.65;;;;;;;;;;4979525;28;25131;-74
2023/10/09 07:33:30;;;;;;;15.57;7.78;;;;;;;;;;4997440;28;25092;-73
2023/10/09 07:38:19;;;;;;;18.10;8.65;;;;;;;;;;4996115;28;25077;-74
2023/10/09 07:40:56;;;;;;;19.45;9.05;;;;;;;;;;4999904;28;25061;-73
2023/10/09 07:43:27;;;;;;;20.95;8.88;;;;;;;;;;4998333;28;25135;-74
2023/10/09 07:46:29;;;;;;;17.58;8.55;;;;;;;;;;4998453;28;25169;-71
2023/10/09 07:48:48;;;;;;;14.60;9.20;;;;;;;;;;5001767;28;25071;-72
2023/10/09 07:51:14;;;;;;;19.48;8.55;;;;;;;;;;4988580;28;25050;-73
2023/10/09 07:53:44;;;;;;;16.27;8.25;;;;;;;;;;5012152;28;25080;-74
2023/10/09 07:56:13;;;;;;;20.08;8.25;;;;;;;;;;4989888;28;25070;-72
2023/10/09 07:58:46;;;;;;;20.48;8.25;;;;;;;;;;4979037;28;25058;-74
2023/10/09 08:03:57;;;;;;;16.63;9.50;;;;;;;;;;5008211;28;25102;-73
2023/10/09 08:06:38;;;;;;;18.23;8.75;;;;;;;;;;5009439;28;25055;-74
2023/10/09 08:16:46;;;;;;;20.65;9.98;;;;;;;;;;4996903;28;25136;-74
2023/10/09 08:22:30;;;;;;;20.92;9.77;;;;;;;;;;5009113;28;25038;-71
2023/10/09 08:24:55;;;;;;;22.92;11.73;;;;;;;;;;5001124;28;25106;-75
2023/10/09 08:33:03;;;;;;;17.95;9.63;;;;;;;;;;4999172;28;25063;-72
2023/10/09 08:35:33;;;;;;;17.73;10.48;;;;;;;;;;4982510;28;25086;-72
2023/10/09 08:38:07;;;;;;;20.83;8.98;;;;;;;;;;5006338;28;25063;-73
2023/10/09 08:40:37;;;;;;;23.55;10.05;;;;;;;;;;5003962;28;25073;-74
2023/10/09 08:43:16;;;;;;;22.90;9.93;;;;;;;;;;5006423;28;25049;-73
2023/10/09 08:45:45;;;;;;;17.58;10.20;;;;;;;;;;5017806;28;25090;-72
2023/10/09 08:48:15;;;;;;;19.83;9.18;;;;;;;;;;5001265;28;25062;-73
2023/10/09 08:50:42;;;;;;;21.70;9.02;;;;;;;;;;5007899;28;25102;-70
2023/10/09 08:53:10;;;;;;;16.98;8.95;;;;;;;;;;5005832;28;25067;-73
2023/10/09 08:55:38;;;;;;;20.05;9.38;;;;;;;;;;4996910;28;25059;-73
2023/10/09 09:00:50;;;;;;;20.55;10.25;;;;;;;;;;5006984;28;25058;-73
2023/10/09 09:03:16;;;;;;;25.45;9.63;;;;;;;;;;4993937;28;25064;-74
2023/10/09 09:05:47;;;;;;;14.65;8.90;;;;;;;;;;4999630;28;25057;-74
2023/10/09 09:08:28;;;;;;;19.20;9.23;;;;;;;;;;5007667;28;25095;-71
2023/10/09 09:13:50;;;;;;;18.33;8.93;;;;;;;;;;5001206;28;25154;-70
2023/10/09 09:16:20;;;;;;;19.60;8.80;;;;;;;;;;4996476;28;25055;-74
2023/10/09 09:21:40;;;;;;;16.83;8.80;;;;;;;;;;4997377;28;25057;-71
2023/10/09 09:25:00;;;;;;;16.88;8.57;;;;;;;;;;4992512;28;25066;-73
2023/10/09 09:27:00;;;;;;;28.05;9.68;;;;;;;;;;4995701;28;25054;-72
2023/10/09 09:29:38;;;;;;;22.83;8.13;;;;;;;;;;5005590;28;25066;-72
2023/10/09 09:32:20;;;;;;;15.32;8.38;;;;;;;;;;5000424;28;25064;-71
2023/10/09 09:34:54;;;;;;;20.50;8.23;;;;;;;;;;5001411;28;25067;-72
2023/10/09 09:37:31;;;;;;;17.42;6.97;;;;;;;;;;5004004;28;25136;-73
2023/10/09 09:40:14;;;;;;;13.52;6.55;;;;;;;;;;4999682;28;25056;-71
2023/10/09 09:42:45;;;;;;;14.23;6.97;;;;;;;;;;4994585;28;25084;-71
2023/10/09 09:45:11;;;;;;;15.60;7.10;;;;;;;;;;4999488;28;24882;-72
2023/10/09 09:47:37;;;;;;;15.50;7.28;;;;;;;;;;5006296;28;25060;-72
2023/10/09 09:50:13;;;;;;;15.32;7.53;;;;;;;;;;5003699;28;25086;-72
2023/10/09 09:52:39;;;;;;;16.90;6.88;;;;;;;;;;4999650;28;25079;-73
2023/10/09 09:55:07;;;;;;;12.13;6.63;;;;;;;;;;5007663;28;25056;-70
2023/10/09 09:57:39;;;;;;;12.73;7.07;;;;;;;;;;5005032;28;25048;-72
2023/10/09 10:00:08;;;;;;;;;;;;;;;;;;5006943;28;25097;-70
2023/10/09 10:02:39;;;;;;;17.60;7.25;;;;;;;;;;5014066;28;25089;-72
2023/10/09 10:05:11;;;;;;;15.40;7.05;;;;;;;;;;5004852;28;25155;-70
2023/10/09 10:07:42;;;;;;;12.40;6.35;;;;;;;;;;5000348;28;25146;-72
2023/10/09 10:10:28;;;;;;;14.15;6.88;;;;;;;;;;4997181;28;25052;-71
2023/10/09 10:13:01;;;;;;;16.23;6.18;;;;;;;;;;4995984;28;25057;-73
2023/10/09 10:15:45;;;;;;;12.88;6.45;;;;;;;;;;4992878;28;25065;-71
2023/10/09 10:18:18;;;;;;;14.30;6.78;;;;;;;;;;4991493;28;25145;-74
2023/10/09 10:21:03;;;;;;;16.23;6.25;;;;;;;;;;5001909;28;25124;-72
2023/10/09 10:23:34;;;;;;;13.20;6.88;;;;;;;;;;4986227;28;25058;-72
2023/10/09 10:26:16;;;;;;;11.50;6.13;;;;;;;;;;5002491;28;25082;-72
2023/10/09 10:28:44;;;;;;;15.50;6.35;;;;;;;;;;4980963;28;25165;-71
2023/10/09 10:31:11;;;;;;;20.63;6.45;;;;;;;;;;4996226;28;25058;-70
2023/10/09 10:33:55;;;;;;;10.25;5.85;;;;;;;;;;5002270;28;25076;-73
2023/10/09 10:36:26;;;;;;;15.60;6.93;;;;;;;;;;4991077;28;25139;-71
2023/10/09 10:39:05;;;;;;;13.13;5.73;;;;;;;;;;4995741;28;25150;-72
2023/10/09 10:41:36;;;;;;;11.15;6.28;;;;;;;;;;4996229;28;25092;-72
2023/10/09 10:44:33;;;;;;;14.88;6.45;;;;;;;;;;5006870;28;25056;-73
2023/10/09 10:46:52;;;;;;;12.75;6.00;;;;;;;;;;5005626;28;25070;-72
2023/10/09 10:49:22;;;;;;;12.52;6.13;;;;;;;;;;5007133;28;25069;-71
2023/10/09 10:52:35;;;;;;;12.50;6.80;;;;;;;;;;5001533;28;25127;-73
2023/10/09 10:57:03;;;;;;;18.95;7.35;;;;;;;;;;5009335;28;25070;-73
2023/10/09 10:59:41;;;;;;;17.00;6.15;;;;;;;;;;5006035;28;25131;-73
2023/10/09 11:02:22;;;;;;;12.77;5.57;;;;;;;;;;5004083;28;25061;-71
2023/10/09 11:04:55;;;;;;;21.20;5.78;;;;;;;;;;4996825;28;25074;-74
2023/10/09 11:07:27;;;;;;;13.63;6.10;;;;;;;;;;4991682;28;25067;-73
2023/10/09 11:10:28;;;;;;;10.43;5.30;;;;;;;;;;4999994;28;25119;-70
2023/10/09 11:15:37;;;;;;;17.52;5.60;;;;;;;;;;4996897;28;25050;-73
2023/10/09 11:18:16;;;;;;;15.23;5.75;;;;;;;;;;4997878;28;25056;-71
2023/10/09 11:20:56;;;;;;;11.45;5.70;;;;;;;;;;5008224;28;25094;-72
2023/10/09 11:26:25;;;;;;;11.18;5.00;;;;;;;;;;4998824;28;25148;-71
2023/10/09 11:32:05;;;;;;;12.45;6.32;;;;;;;;;;4993326;28;25082;-73
2023/10/09 11:34:31;;;;;;;14.55;5.07;;;;;;;;;;4997614;28;25073;-73
2023/10/09 11:36:58;;;;;;;19.60;5.88;;;;;;;;;;4999712;28;25104;-71
2023/10/09 11:39:31;;;;;;;14.10;5.97;;;;;;;;;;4988602;28;25098;-72
2023/10/09 11:42:04;;;;;;;14.60;5.13;;;;;;;;;;4996229;28;25097;-73
2023/10/09 11:44:39;;;;;;;12.70;5.13;;;;;;;;;;4995806;28;25162;-72
2023/10/09 11:47:24;;;;;;;12.55;4.90;;;;;;;;;;5005169;28;25056;-70
2023/10/09 11:50:11;;;;;;;11.10;4.85;;;;;;;;;;4997464;28;25104;-75
2023/10/09 11:53:08;;;;;;;12.40;5.35;;;;;;;;;;4994209;28;25070;-72
2023/10/09 11:55:34;;;;;;;9.95;5.22;;;;;;;;;;5001330;28;25063;-73
2023/10/09 11:58:02;;;;;;;11.35;5.55;;;;;;;;;;4998508;28;25067;-73
2023/10/09 12:00:32;;;;;;;14.32;6.45;;;;;;;;;;4987444;28;25194;-73
2023/10/09 12:03:05;;;;;;;11.27;5.72;;;;;;;;;;4996463;28;25078;-71
2023/10/09 12:05:34;;;;;;;15.38;5.93;;;;;;;;;;4997492;28;25077;-71
2023/10/09 12:08:01;;;;;;;16.33;5.28;;;;;;;;;;4993669;28;25153;-74
2023/10/09 12:10:29;;;;;;;12.20;4.80;;;;;;;;;;4983207;28;25135;-71
2023/10/09 12:12:58;;;;;;;12.52;5.43;;;;;;;;;;4974653;28;25075;-72
2023/10/09 12:15:25;;;;;;;12.88;5.13;;;;;;;;;;4993511;28;25062;-72
2023/10/09 12:17:53;;;;;;;13.52;5.47;;;;;;;;;;4986833;28;25076;-73
2023/10/09 12:20:31;;;;;;;10.48;5.70;;;;;;;;;;4981707;28;25062;-73
2023/10/09 12:22:58;;;;;;;15.10;5.78;;;;;;;;;;4994673;28;25061;-77
2023/10/09 12:25:25;;;;;;;17.20;5.55;;;;;;;;;;4980037;28;25085;-74
2023/10/09 12:27:57;;;;;;;16.38;6.63;;;;;;;;;;4996021;28;25094;-76
2023/10/09 12:30:26;;;;;;;11.40;5.32;;;;;;;;;;5002014;28;25066;-71
2023/10/09 12:32:53;;;;;;;10.88;5.03;;;;;;;;;;4979094;28;25080;-73
2023/10/09 12:35:23;;;;;;;16.77;6.00;;;;;;;;;;4998124;28;25107;-74
2023/10/09 12:37:50;;;;;;;15.18;5.57;;;;;;;;;;4979988;28;25071;-73
2023/10/09 12:40:23;;;;;;;11.20;5.85;;;;;;;;;;4997389;28;25108;-73
2023/10/09 12:42:50;;;;;;;15.93;5.95;;;;;;;;;;4993305;28;25085;-74
2023/10/09 12:45:17;;;;;;;11.82;5.88;;;;;;;;;;4980538;28;25063;-71
2023/10/09 12:47:43;;;;;;;13.95;5.85;;;;;;;;;;4994870;28;25050;-73
2023/10/09 12:50:13;;;;;;;17.70;5.65;;;;;;;;;;4998744;28;25138;-73
2023/10/09 12:52:39;;;;;;;17.35;5.47;;;;;;;;;;5000195;28;25094;-71
2023/10/09 12:55:08;;;;;;;11.48;5.75;;;;;;;;;;4994321;28;25158;-72
2023/10/09 12:57:36;;;;;;;10.90;5.43;;;;;;;;;;4997135;28;25093;-73
2023/10/09 13:00:10;;;;;;;11.52;5.35;;;;;;;;;;5002224;28;25131;-71
2023/10/09 13:02:36;;;;;;;10.50;5.00;;;;;;;;;;5004334;28;25063;-73
2023/10/09 13:05:05;;;;;;;11.43;5.20;;;;;;;;;;5005553;28;25152;-73
2023/10/09 13:07:31;;;;;;;12.57;5.25;;;;;;;;;;5001109;28;25046;-75
2023/10/09 13:10:12;;;;;;;12.85;4.63;;;;;;;;;;4987443;28;25057;-75
2023/10/09 13:12:40;;;;;;;10.80;4.93;;;;;;;;;;4998800;28;25064;-71
2023/10/09 13:15:09;;;;;;;12.25;5.70;;;;;;;;;;4990109;28;25078;-70
2023/10/09 13:17:36;;;;;;;14.95;5.55;;;;;;;;;;5013631;28;25075;-73
2023/10/09 13:20:03;;;;;;;15.13;4.85;;;;;;;;;;4989536;28;25067;-73
2023/10/09 13:22:30;;;;;;;11.57;5.57;;;;;;;;;;5005050;28;25055;-71
2023/10/09 13:25:03;;;;;;;13.05;5.05;;;;;;;;;;4985485;28;25060;-74
2023/10/09 13:27:34;;;;;;;16.98;5.22;;;;;;;;;;4996324;28;25091;-71
2023/10/09 13:30:05;;;;;;;14.77;5.40;;;;;;;;;;5000887;28;25053;-72
2023/10/09 13:32:35;;;;;;;13.82;5.45;;;;;;;;;;4989105;28;25103;-72
2023/10/09 13:35:05;;;;;;;16.90;5.78;;;;;;;;;;5001980;28;25070;-73
2023/10/09 13:37:36;;;;;;;14.25;5.38;;;;;;;;;;5001753;28;25104;-73
2023/10/09 13:40:09;;;;;;;11.32;5.35;;;;;;;;;;4981363;28;25050;-71
2023/10/09 13:42:38;;;;;;;16.48;5.70;;;;;;;;;;4999859;28;25053;-70
2023/10/09 13:45:07;;;;;;;13.45;5.80;;;;;;;;;;4994642;28;25067;-71
2023/10/09 13:47:36;;;;;;;12.40;5.05;;;;;;;;;;4991032;28;25088;-71
2023/10/09 13:50:03;;;;;;;10.50;6.03;;;;;;;;;;4996422;28;25048;-72
2023/10/09 13:52:30;;;;;;;8.65;4.85;;;;;;;;;;5000948;28;25066;-71
2023/10/09 13:54:58;;;;;;;12.32;5.22;;;;;;;;;;5005040;28;25085;-72
2023/10/09 13:57:31;;;;;;;15.02;5.38;;;;;;;;;;5000301;28;25112;-71
2023/10/09 14:00:00;;;;;;;10.82;5.13;;;;;;;;;;5001849;28;25099;-71
2023/10/09 14:02:28;;;;;;;11.02;5.35;;;;;;;;;;4996627;28;25099;-73
2023/10/09 14:04:57;;;;;;;11.43;5.53;;;;;;;;;;4987299;28;25070;-72
2023/10/09 14:07:23;;;;;;;11.82;4.57;;;;;;;;;;4982773;28;25099;-74
2023/10/09 14:09:55;;;;;;;15.00;5.63;;;;;;;;;;4999001;28;25088;-72
2023/10/09 14:12:22;;;;;;;12.30;5.40;;;;;;;;;;4997764;28;25102;-72
2023/10/09 14:14:48;;;;;;;12.85;6.25;;;;;;;;;;5000769;28;25138;-71
2023/10/09 14:17:19;;;;;;;9.95;5.32;;;;;;;;;;5003407;28;25094;-71
2023/10/09 14:19:47;;;;;;;12.45;5.55;;;;;;;;;;5002890;28;25046;-71
2023/10/09 14:22:15;;;;;;;13.65;4.88;;;;;;;;;;5003422;28;25066;-71
2023/10/09 14:24:45;;;;;;;13.52;6.30;;;;;;;;;;4989668;28;25129;-73
2023/10/09 14:27:17;;;;;;;12.43;5.43;;;;;;;;;;5010170;28;25063;-70
2023/10/09 14:29:44;;;;;;;13.30;5.25;;;;;;;;;;5015273;28;25052;-72
2023/10/09 14:32:13;;;;;;;19.48;6.00;;;;;;;;;;5018661;28;25053;-70
2023/10/09 14:34:42;;;;;;;14.52;5.45;;;;;;;;;;5014203;28;25070;-71
2023/10/09 14:37:11;;;;;;;14.20;4.88;;;;;;;;;;5009251;28;25053;-70
2023/10/09 14:39:38;;;;;;;14.25;5.85;;;;;;;;;;5013477;28;25062;-71
2023/10/09 14:42:09;;;;;;;16.20;6.20;;;;;;;;;;5001737;28;25066;-70
2023/10/09 14:44:40;;;;;;;11.07;5.50;;;;;;;;;;5019094;28;25098;-70
2023/10/09 14:47:06;;;;;;;10.88;5.03;;;;;;;;;;5017371;28;25059;-70
2023/10/09 14:49:36;;;;;;;12.35;5.30;;;;;;;;;;5004728;28;25125;-70
2023/10/09 14:52:03;;;;;;;17.35;5.80;;;;;;;;;;4998136;28;25088;-72
2023/10/09 14:54:28;;;;;;;15.93;5.93;;;;;;;;;;4994796;28;25060;-72
2023/10/09 14:56:54;;;;;;;11.93;5.10;;;;;;;;;;5000707;28;25080;-71
2023/10/09 14:59:25;;;;;;;14.48;5.72;;;;;;;;;;4994790;28;25096;-70
2023/10/09 15:01:53;;;;;;;12.50;5.53;;;;;;;;;;4995042;28;25099;-71
2023/10/09 15:04:19;;;;;;;9.10;5.10;;;;;;;;;;4997943;28;25060;-73
2023/10/09 15:06:49;;;;;;;23.10;6.85;;;;;;;;;;4995596;28;25071;-71
2023/10/09 15:09:22;;;;;;;9.20;4.78;;;;;;;;;;4993125;28;25055;-70
2023/10/09 15:11:48;;;;;;;10.63;5.68;;;;;;;;;;4999468;28;25065;-72
2023/10/09 15:14:15;;;;;;;14.82;5.28;;;;;;;;;;4993735;28;25078;-72
2023/10/09 15:16:42;;;;;;;12.95;5.70;;;;;;;;;;4997072;28;25161;-70
2023/10/09 15:19:10;;;;;;;10.48;5.38;;;;;;;;;;4985376;28;25044;-71
2023/10/09 15:21:36;;;;;;;15.00;5.72;;;;;;;;;;4992046;28;25143;-72
2023/10/09 15:24:02;;;;;;;12.13;5.75;;;;;;;;;;4993162;28;25147;-69
2023/10/09 15:26:32;;;;;;;12.68;5.68;;;;;;;;;;4994362;28;25050;-71
2023/10/09 15:28:58;;;;;;;15.93;6.00;;;;;;;;;;4987320;28;25084;-71
2023/10/09 15:31:25;;;;;;;12.38;5.85;;;;;;;;;;4990557;28;25057;-70
2023/10/09 15:33:51;;;;;;;13.68;5.75;;;;;;;;;;4990229;28;25071;-72
2023/10/09 15:36:20;;;;;;;11.63;5.82;;;;;;;;;;4989831;28;24665;-71
2023/10/09 15:38:46;;;;;;;16.85;6.32;;;;;;;;;;4988073;28;25068;-71
2023/10/09 15:41:13;;;;;;;17.60;6.07;;;;;;;;;;4989053;28;25068;-70
2023/10/09 15:43:39;;;;;;;18.92;6.18;;;;;;;;;;4993894;28;25072;-68
2023/10/09 15:46:11;;;;;;;15.57;6.15;;;;;;;;;;4994739;28;25063;-68
2023/10/09 15:48:38;;;;;;;10.07;6.03;;;;;;;;;;4990806;28;25055;-71
2023/10/09 15:51:11;;;;;;;14.90;5.97;;;;;;;;;;4993568;28;25093;-70
2023/10/09 15:53:38;;;;;;;13.00;6.90;;;;;;;;;;4996208;28;25184;-71
2023/10/09 15:56:07;;;;;;;12.98;6.22;;;;;;;;;;4997531;28;25060;-68
2023/10/09 15:58:33;;;;;;;15.82;5.57;;;;;;;;;;4993521;28;25093;-70
2023/10/09 16:00:59;;;;;;;17.33;5.75;;;;;;;;;;4992630;28;25060;-71
2023/10/09 16:03:27;;;;;;;13.25;6.68;;;;;;;;;;4994784;28;25060;-74
2023/10/09 16:05:53;;;;;;;13.52;6.10;;;;;;;;;;4995164;28;25078;-71
2023/10/09 16:08:22;;;;;;;16.08;5.95;;;;;;;;;;4991328;28;25058;-71
2023/10/09 16:10:49;;;;;;;12.93;5.68;;;;;;;;;;4990228;28;25098;-69
2023/10/09 16:13:16;;;;;;;12.45;5.95;;;;;;;;;;4989679;28;25124;-71
2023/10/09 16:15:45;;;;;;;12.27;5.72;;;;;;;;;;4991121;28;25071;-71
2023/10/09 16:18:11;;;;;;;15.13;6.57;;;;;;;;;;4971526;28;25126;-68
2023/10/09 16:20:37;;;;;;;12.35;5.85;;;;;;;;;;4992403;28;25051;-71
2023/10/09 16:23:04;;;;;;;13.98;5.82;;;;;;;;;;4987782;28;25072;-70
2023/10/09 16:25:30;;;;;;;14.68;6.30;;;;;;;;;;4990971;28;25083;-71
2023/10/09 16:27:58;;;;;;;17.17;6.80;;;;;;;;;;4984421;28;25063;-69
2023/10/09 16:30:25;;;;;;;23.17;7.30;;;;;;;;;;4986081;28;25080;-73
2023/10/09 16:32:51;;;;;;;14.27;6.40;;;;;;;;;;4966502;28;25130;-71
2023/10/09 16:35:17;;;;;;;16.38;6.47;;;;;;;;;;4975479;28;25129;-70
2023/10/09 16:37:43;;;;;;;13.40;6.30;;;;;;;;;;4986524;28;25159;-70
2023/10/09 16:40:12;;;;;;;16.40;6.80;;;;;;;;;;4991301;28;25063;-71
2023/10/09 16:42:40;;;;;;;17.10;6.80;;;;;;;;;;4987486;28;25112;-72
2023/10/09 16:45:08;;;;;;;15.95;6.60;;;;;;;;;;4991240;28;25065;-68
2023/10/09 16:47:38;;;;;;;13.60;6.93;;;;;;;;;;4970899;28;25071;-72
2023/10/09 16:50:09;;;;;;;12.82;6.28;;;;;;;;;;4994199;28;25069;-69
2023/10/09 16:52:37;;;;;;;16.17;6.65;;;;;;;;;;4989477;28;25081;-69
2023/10/09 16:55:08;;;;;;;14.63;6.68;;;;;;;;;;4989947;28;25074;-71
2023/10/09 16:57:34;;;;;;;18.38;8.07;;;;;;;;;;4989466;28;25081;-70
2023/10/09 17:00:00;;;;;;;16.30;7.82;;;;;;;;;;4991243;28;25075;-71
2023/10/09 17:02:27;;;;;;;13.40;7.70;;;;;;;;;;4988332;28;25077;-69
2023/10/09 17:04:54;;;;;;;22.30;8.35;;;;;;;;;;4988255;28;25053;-72
2023/10/09 17:07:23;;;;;;;20.15;7.03;;;;;;;;;;4969399;28;25076;-72
2023/10/09 17:09:49;;;;;;;15.07;6.95;;;;;;;;;;4990915;28;25113;-72
2023/10/09 17:12:17;;;;;;;21.58;8.20;;;;;;;;;;4995775;28;25168;-71
2023/10/09 17:14:43;;;;;;;13.85;6.65;;;;;;;;;;4986011;28;25084;-71
2023/10/09 17:17:09;;;;;;;15.25;7.45;;;;;;;;;;4994796;28;25120;-70
2023/10/09 17:19:38;;;;;;;14.43;7.57;;;;;;;;;;4992666;28;25063;-69
2023/10/09 17:22:10;;;;;;;11.88;6.50;;;;;;;;;;4973956;28;25113;-69
2023/10/09 17:24:38;;;;;;;10.85;6.45;;;;;;;;;;4990095;28;25066;-71
2023/10/09 17:27:08;;;;;;;11.68;6.47;;;;;;;;;;4991063;28;25060;-71
2023/10/09 17:29:36;;;;;;;19.00;6.88;;;;;;;;;;4976348;28;25065;-71
2023/10/09 17:32:02;;;;;;;14.60;6.40;;;;;;;;;;4991262;28;25095;-71